Time;durP1;ratioP1;P1;durP2;ratioP2;P2;SDS_P1;SDS_P2;PMS_P1;PMS_P2;Temp;Humidity;BMP_temperature;BMP_pressure;BME280_temperature;BME280_humidity;BME280_pressure;Samples;Min_cycle;Max_cycle;Signal;HPM_P1;HPM_P2
2023/01/05 00:00:53;;;;;;;16.47;3.97;;;;;;;;;;5004305;28;20900;-78
2023/01/05 00:03:19;;;;;;;14.10;4.80;;;;;;;;;;5004860;28;20489;-78
2023/01/05 00:05:46;;;;;;;7.93;3.40;;;;;;;;;;5005111;28;20476;-78
2023/01/05 00:08:12;;;;;;;16.43;3.63;;;;;;;;;;4995146;28;20477;-78
2023/01/05 00:24:24;;;;;;;13.20;3.80;;;;;;;;;;5006073;28;20837;-78
2023/01/05 00:26:50;;;;;;;16.37;3.90;;;;;;;;;;5003308;28;20457;-78
2023/01/05 00:29:16;;;;;;;14.23;2.50;;;;;;;;;;5005789;28;20477;-78
2023/01/05 00:31:46;;;;;;;8.83;3.97;;;;;;;;;;5008654;28;20458;-78
2023/01/05 00:34:13;;;;;;;11.23;3.40;;;;;;;;;;5005124;28;20484;-78
2023/01/05 00:36:39;;;;;;;10.27;3.37;;;;;;;;;;5009218;28;20461;-78
2023/01/05 00:39:05;;;;;;;10.03;2.90;;;;;;;;;;5003602;28;20859;-79
2023/01/05 00:41:32;;;;;;;7.83;4.17;;;;;;;;;;5007772;28;20547;-78
2023/01/05 00:43:58;;;;;;;11.53;3.70;;;;;;;;;;5005065;28;21017;-78
2023/01/05 00:46:25;;;;;;;14.47;3.10;;;;;;;;;;5011057;28;20461;-78
2023/01/05 00:48:52;;;;;;;8.70;2.90;;;;;;;;;;5008279;28;20482;-78
2023/01/05 00:51:19;;;;;;;13.73;2.90;;;;;;;;;;5006547;28;20445;-78
2023/01/05 00:53:47;;;;;;;13.53;3.40;;;;;;;;;;5005830;28;20470;-78
2023/01/05 00:56:14;;;;;;;12.77;3.10;;;;;;;;;;5006853;28;20460;-78
2023/01/05 00:58:40;;;;;;;7.30;3.00;;;;;;;;;;5007328;28;20477;-78
2023/01/05 01:01:08;;;;;;;11.77;3.00;;;;;;;;;;5003542;28;20489;-78
2023/01/05 01:03:35;;;;;;;14.90;3.03;;;;;;;;;;5001090;28;20485;-79
2023/01/05 01:06:02;;;;;;;12.83;3.70;;;;;;;;;;5004764;28;20451;-79
2023/01/05 01:08:29;;;;;;;10.93;3.10;;;;;;;;;;5007007;28;20986;-78
2023/01/05 01:10:55;;;;;;;9.30;3.57;;;;;;;;;;5005697;28;20446;-78
2023/01/05 01:13:23;;;;;;;13.33;3.80;;;;;;;;;;5006499;28;20470;-79
2023/01/05 01:15:50;;;;;;;7.50;3.17;;;;;;;;;;5001700;28;20462;-78
2023/01/05 01:18:16;;;;;;;13.73;3.90;;;;;;;;;;5004602;28;20478;-78
2023/01/05 01:20:42;;;;;;;13.10;3.33;;;;;;;;;;5001615;28;20546;-78
2023/01/05 01:23:10;;;;;;;15.87;4.17;;;;;;;;;;5003789;28;20971;-78
2023/01/05 01:25:37;;;;;;;11.03;3.17;;;;;;;;;;5003591;28;20461;-78
2023/01/05 01:28:04;;;;;;;17.60;5.23;;;;;;;;;;5011604;28;20476;-78
2023/01/05 01:30:31;;;;;;;10.00;3.20;;;;;;;;;;5009360;28;20465;-78
2023/01/05 01:32:57;;;;;;;10.40;3.23;;;;;;;;;;5009609;28;21026;-78
2023/01/05 01:35:23;;;;;;;16.33;3.60;;;;;;;;;;5010022;28;20818;-78
2023/01/05 01:37:50;;;;;;;11.00;4.20;;;;;;;;;;5005255;28;20474;-78
2023/01/05 01:40:18;;;;;;;11.90;3.40;;;;;;;;;;5009831;28;20457;-78
2023/01/05 01:42:44;;;;;;;11.47;3.10;;;;;;;;;;5011112;28;20470;-78
2023/01/05 01:45:18;;;;;;;20.07;3.50;;;;;;;;;;5007317;28;20462;-78
2023/01/05 01:47:47;;;;;;;10.77;3.80;;;;;;;;;;5013184;28;20469;-78
2023/01/05 01:50:15;;;;;;;11.37;2.97;;;;;;;;;;5002605;28;20442;-78
2023/01/05 01:52:42;;;;;;;7.40;2.67;;;;;;;;;;5002144;28;20444;-78
2023/01/05 01:55:08;;;;;;;4.60;2.73;;;;;;;;;;5009018;28;20457;-78
2023/01/05 01:57:36;;;;;;;6.03;3.30;;;;;;;;;;5009939;28;20468;-79
2023/01/05 02:00:05;;;;;;;10.30;2.90;;;;;;;;;;5010671;28;20458;-78
2023/01/05 02:02:31;;;;;;;9.47;3.30;;;;;;;;;;5008122;28;20493;-79
2023/01/05 02:05:01;;;;;;;11.93;2.93;;;;;;;;;;5008135;28;20954;-78
2023/01/05 02:07:30;;;;;;;15.10;5.03;;;;;;;;;;5005858;28;20469;-78
2023/01/05 02:09:56;;;;;;;9.80;3.30;;;;;;;;;;5004730;28;20446;-78
2023/01/05 02:12:28;;;;;;;17.63;3.70;;;;;;;;;;5009384;28;20452;-79
2023/01/05 02:15:00;;;;;;;13.90;3.47;;;;;;;;;;5008350;28;20450;-78
2023/01/05 02:17:34;;;;;;;11.60;3.23;;;;;;;;;;5006992;28;21147;-78
2023/01/05 02:20:23;;;;;;;14.53;4.23;;;;;;;;;;5007247;28;20442;-78
2023/01/05 02:23:10;;;;;;;9.00;3.23;;;;;;;;;;5003052;28;21049;-78
2023/01/05 02:25:56;;;;;;;12.67;4.30;;;;;;;;;;4987615;28;20501;-78
2023/01/05 02:28:32;;;;;;;15.30;3.97;;;;;;;;;;5006734;28;20485;-78
2023/01/05 02:31:12;;;;;;;14.20;3.57;;;;;;;;;;5008748;28;20457;-78
2023/01/05 02:33:53;;;;;;;8.67;3.00;;;;;;;;;;5004659;28;21021;-78
2023/01/05 02:36:23;;;;;;;8.30;2.60;;;;;;;;;;5005835;28;20490;-78
2023/01/05 02:38:53;;;;;;;9.53;3.47;;;;;;;;;;5006572;28;20481;-78
2023/01/05 02:41:23;;;;;;;10.33;3.80;;;;;;;;;;5011596;28;20465;-78
2023/01/05 02:43:50;;;;;;;8.70;2.90;;;;;;;;;;5006849;28;20474;-78
2023/01/05 02:46:18;;;;;;;10.03;4.87;;;;;;;;;;5009524;28;20458;-78
2023/01/05 02:48:45;;;;;;;9.23;3.67;;;;;;;;;;5004975;28;20536;-78
2023/01/05 02:51:13;;;;;;;8.90;3.57;;;;;;;;;;5001335;28;20466;-78
2023/01/05 02:53:43;;;;;;;8.80;3.43;;;;;;;;;;5004893;28;20843;-78
2023/01/05 02:56:11;;;;;;;14.53;3.47;;;;;;;;;;5011248;28;20454;-78
2023/01/05 02:58:39;;;;;;;11.30;3.00;;;;;;;;;;5004353;28;20482;-78
2023/01/05 03:01:07;;;;;;;14.73;4.20;;;;;;;;;;5008993;28;20465;-78
2023/01/05 03:03:38;;;;;;;12.17;3.30;;;;;;;;;;5008290;28;20870;-77
2023/01/05 03:06:08;;;;;;;10.53;3.87;;;;;;;;;;5011121;28;20978;-78
2023/01/05 03:08:36;;;;;;;8.40;3.37;;;;;;;;;;5011507;28;20482;-78
2023/01/05 03:13:50;;;;;;;15.37;3.37;;;;;;;;;;5002450;28;20476;-78
2023/01/05 03:16:19;;;;;;;13.53;3.90;;;;;;;;;;5010617;28;20449;-78
2023/01/05 03:35:31;;;;;;;20.53;4.20;;;;;;;;;;5007512;28;20468;-78
2023/01/05 03:38:00;;;;;;;17.70;4.10;;;;;;;;;;5001338;28;20505;-78
2023/01/05 03:40:29;;;;;;;13.03;4.13;;;;;;;;;;5004195;28;20835;-78
2023/01/05 03:42:56;;;;;;;12.53;3.60;;;;;;;;;;5005941;28;20469;-78
2023/01/05 03:45:23;;;;;;;17.93;4.23;;;;;;;;;;5009607;28;20465;-78
2023/01/05 03:47:51;;;;;;;20.10;6.07;;;;;;;;;;5008241;28;20496;-78
2023/01/05 03:50:19;;;;;;;14.37;5.23;;;;;;;;;;5007154;28;20450;-78
2023/01/05 03:52:45;;;;;;;21.23;4.63;;;;;;;;;;5004822;28;20473;-78
2023/01/05 03:55:12;;;;;;;19.03;4.70;;;;;;;;;;5010433;28;20454;-78
2023/01/05 03:57:39;;;;;;;14.03;4.20;;;;;;;;;;5005328;28;20477;-78
2023/01/05 04:00:06;;;;;;;15.10;3.80;;;;;;;;;;5004738;28;20462;-78
2023/01/05 04:02:34;;;;;;;12.23;3.37;;;;;;;;;;5009419;28;21010;-78
2023/01/05 04:05:00;;;;;;;10.57;2.90;;;;;;;;;;5009001;28;20469;-78
2023/01/05 04:07:28;;;;;;;18.13;4.73;;;;;;;;;;5009548;28;20473;-78
2023/01/05 04:09:54;;;;;;;25.07;5.30;;;;;;;;;;5004607;28;20833;-78
2023/01/05 04:12:20;;;;;;;15.93;3.67;;;;;;;;;;5004404;28;20446;-78
2023/01/05 04:14:47;;;;;;;18.57;4.30;;;;;;;;;;5002885;28;20485;-78
2023/01/05 04:17:13;;;;;;;16.13;4.17;;;;;;;;;;5010225;28;20477;-78
2023/01/05 04:19:40;;;;;;;13.00;3.57;;;;;;;;;;5005510;28;20481;-78
2023/01/05 04:22:06;;;;;;;19.43;4.53;;;;;;;;;;5007431;28;21010;-78
2023/01/05 04:24:34;;;;;;;16.43;4.87;;;;;;;;;;5005103;28;20489;-78
2023/01/05 04:27:01;;;;;;;22.47;4.60;;;;;;;;;;5007930;28;20465;-78
2023/01/05 04:29:28;;;;;;;12.30;4.20;;;;;;;;;;5008487;28;20493;-78
2023/01/05 04:31:56;;;;;;;17.70;4.10;;;;;;;;;;5007973;28;20462;-79
2023/01/05 04:34:22;;;;;;;14.77;4.97;;;;;;;;;;5001729;28;20829;-78
2023/01/05 04:36:49;;;;;;;20.43;4.63;;;;;;;;;;5008225;28;20477;-78
2023/01/05 04:39:16;;;;;;;14.43;4.47;;;;;;;;;;5001855;28;20525;-78
2023/01/05 04:41:43;;;;;;;11.53;4.30;;;;;;;;;;5003361;28;20442;-78
2023/01/05 04:44:10;;;;;;;9.67;3.50;;;;;;;;;;5007188;28;20475;-78
2023/01/05 04:46:39;;;;;;;13.60;3.70;;;;;;;;;;5010153;28;20454;-78
2023/01/05 04:49:05;;;;;;;15.77;5.20;;;;;;;;;;5005141;28;20485;-78
2023/01/05 04:51:31;;;;;;;8.63;4.07;;;;;;;;;;5010007;28;20470;-78
2023/01/05 04:53:58;;;;;;;20.50;4.40;;;;;;;;;;5006003;28;21074;-78
2023/01/05 04:56:24;;;;;;;12.13;3.90;;;;;;;;;;5002735;28;20843;-78
2023/01/05 04:58:54;;;;;;;14.40;4.87;;;;;;;;;;5001663;28;20854;-78
2023/01/05 05:01:20;;;;;;;9.33;3.67;;;;;;;;;;5004944;28;20458;-78
2023/01/05 05:03:46;;;;;;;16.23;4.73;;;;;;;;;;5006250;28;20508;-78
2023/01/05 05:06:13;;;;;;;17.20;4.97;;;;;;;;;;5006187;28;20457;-78
2023/01/05 05:08:39;;;;;;;21.07;4.50;;;;;;;;;;5006806;28;20489;-78
2023/01/05 05:11:06;;;;;;;16.73;3.77;;;;;;;;;;5004973;28;20448;-78
2023/01/05 05:13:32;;;;;;;16.80;5.67;;;;;;;;;;5001811;28;21187;-78
2023/01/05 05:16:00;;;;;;;11.57;4.23;;;;;;;;;;5003079;28;20939;-78
2023/01/05 05:18:26;;;;;;;15.93;4.70;;;;;;;;;;5001777;28;20492;-78
2023/01/05 05:20:53;;;;;;;16.80;4.90;;;;;;;;;;5004928;28;20477;-78
2023/01/05 05:23:20;;;;;;;19.50;4.00;;;;;;;;;;5007687;28;20473;-78
2023/01/05 05:25:49;;;;;;;14.03;4.47;;;;;;;;;;5009492;28;20458;-78
2023/01/05 05:28:15;;;;;;;14.77;4.37;;;;;;;;;;5003133;28;20481;-78
2023/01/05 05:30:42;;;;;;;22.53;4.60;;;;;;;;;;5006952;28;20457;-78
2023/01/05 05:33:09;;;;;;;15.07;6.07;;;;;;;;;;5008020;28;20473;-78
2023/01/05 05:35:36;;;;;;;11.63;3.77;;;;;;;;;;5006622;28;20504;-78
2023/01/05 05:38:02;;;;;;;18.93;5.43;;;;;;;;;;5007252;28;21013;-78
2023/01/05 05:40:28;;;;;;;11.87;4.07;;;;;;;;;;5012019;28;20466;-78
2023/01/05 05:42:55;;;;;;;15.53;4.70;;;;;;;;;;5007851;28;20469;-78
2023/01/05 05:45:21;;;;;;;22.50;4.83;;;;;;;;;;5010360;28;20493;-78
2023/01/05 05:47:48;;;;;;;25.70;5.70;;;;;;;;;;5000426;28;20481;-78
2023/01/05 05:50:15;;;;;;;16.20;3.93;;;;;;;;;;5003703;28;20464;-78
2023/01/05 05:52:42;;;;;;;13.23;4.53;;;;;;;;;;5005883;28;21690;-78
2023/01/05 05:55:09;;;;;;;10.27;4.10;;;;;;;;;;5007210;28;20940;-78
2023/01/05 05:57:35;;;;;;;23.63;6.10;;;;;;;;;;5005814;28;20489;-78
2023/01/05 06:00:02;;;;;;;17.37;6.97;;;;;;;;;;5005719;28;20453;-78
2023/01/05 06:02:28;;;;;;;18.27;4.00;;;;;;;;;;5000696;28;20461;-79
2023/01/05 06:04:55;;;;;;;14.57;3.37;;;;;;;;;;5005067;28;20549;-78
2023/01/05 06:07:22;;;;;;;16.20;3.90;;;;;;;;;;5007084;28;20465;-79
2023/01/05 06:09:49;;;;;;;24.47;4.33;;;;;;;;;;5004662;28;20464;-78
2023/01/05 06:12:15;;;;;;;8.83;3.73;;;;;;;;;;5013622;28;20438;-78
2023/01/05 06:14:42;;;;;;;14.70;3.80;;;;;;;;;;5010603;28;20477;-78
2023/01/05 06:17:08;;;;;;;14.70;3.73;;;;;;;;;;5009989;28;20468;-78
2023/01/05 06:19:35;;;;;;;13.77;4.00;;;;;;;;;;5005757;28;20469;-78
2023/01/05 06:22:01;;;;;;;16.00;5.00;;;;;;;;;;5011842;28;20461;-78
2023/01/05 06:24:29;;;;;;;17.33;3.30;;;;;;;;;;5008111;28;20481;-78
2023/01/05 06:26:55;;;;;;;10.33;2.80;;;;;;;;;;5008246;28;20995;-79
2023/01/05 06:29:21;;;;;;;8.70;2.83;;;;;;;;;;5029377;28;21003;-78
2023/01/05 06:31:48;;;;;;;5.90;4.00;;;;;;;;;;5026547;28;20469;-78
2023/01/05 06:34:14;;;;;;;11.73;2.30;;;;;;;;;;5011678;28;20487;-78
2023/01/05 06:36:41;;;;;;;7.20;2.47;;;;;;;;;;5007235;28;20462;-79
2023/01/05 06:39:07;;;;;;;9.97;2.20;;;;;;;;;;5011412;28;20482;-78
2023/01/05 06:41:36;;;;;;;4.07;2.13;;;;;;;;;;5011724;28;20450;-79
2023/01/05 06:44:02;;;;;;;7.00;2.63;;;;;;;;;;5003047;28;20474;-78
2023/01/05 06:46:29;;;;;;;10.23;3.50;;;;;;;;;;5003465;28;20457;-78
2023/01/05 06:48:56;;;;;;;13.73;3.10;;;;;;;;;;5012855;28;20489;-78
2023/01/05 06:51:22;;;;;;;14.03;2.03;;;;;;;;;;5012036;28;20958;-78
2023/01/05 06:53:50;;;;;;;11.30;2.03;;;;;;;;;;5009899;28;20481;-78
2023/01/05 06:56:16;;;;;;;7.33;2.70;;;;;;;;;;5010178;28;20749;-78
2023/01/05 06:58:44;;;;;;;8.67;3.27;;;;;;;;;;5013609;28;20490;-79
2023/01/05 07:01:11;;;;;;;10.63;1.93;;;;;;;;;;5008593;28;20982;-78
2023/01/05 07:03:37;;;;;;;6.90;2.80;;;;;;;;;;5012603;28;21000;-79
2023/01/05 07:06:05;;;;;;;5.40;2.53;;;;;;;;;;4999922;28;20538;-78
2023/01/05 07:08:31;;;;;;;15.13;3.30;;;;;;;;;;5013167;28;20476;-78
2023/01/05 07:10:57;;;;;;;11.10;2.90;;;;;;;;;;5006460;28;20966;-78
2023/01/05 07:13:24;;;;;;;19.23;4.23;;;;;;;;;;5007675;28;20466;-78
2023/01/05 07:15:52;;;;;;;13.23;3.67;;;;;;;;;;5002935;28;20441;-78
2023/01/05 07:18:18;;;;;;;13.43;3.50;;;;;;;;;;5006739;28;20485;-79
2023/01/05 07:20:45;;;;;;;11.60;3.40;;;;;;;;;;5010826;28;20450;-78
2023/01/05 07:23:11;;;;;;;17.10;4.13;;;;;;;;;;5005345;28;20474;-78
2023/01/05 07:25:38;;;;;;;7.20;3.43;;;;;;;;;;5011957;28;20465;-78
2023/01/05 07:28:04;;;;;;;13.03;3.70;;;;;;;;;;5003599;28;20823;-78
2023/01/05 07:30:31;;;;;;;16.43;3.87;;;;;;;;;;5007754;28;20450;-78
2023/01/05 07:32:59;;;;;;;11.17;2.67;;;;;;;;;;5001888;28;20590;-78
2023/01/05 07:35:25;;;;;;;8.13;2.93;;;;;;;;;;5009225;28;20951;-78
2023/01/05 07:37:51;;;;;;;10.30;3.07;;;;;;;;;;5005367;28;20858;-78
2023/01/05 07:40:18;;;;;;;16.23;4.00;;;;;;;;;;5003825;28;21041;-78
2023/01/05 07:42:44;;;;;;;17.00;2.87;;;;;;;;;;5003745;28;20478;-78
2023/01/05 07:45:11;;;;;;;13.07;4.10;;;;;;;;;;5007471;28;20825;-78
2023/01/05 07:47:39;;;;;;;10.80;2.83;;;;;;;;;;5009764;28;20995;-79
2023/01/05 07:50:07;;;;;;;12.20;4.00;;;;;;;;;;5010471;28;20973;-78
2023/01/05 07:52:34;;;;;;;9.10;2.87;;;;;;;;;;5000410;28;20462;-78
2023/01/05 07:55:00;;;;;;;9.27;3.37;;;;;;;;;;5009677;28;20454;-78
2023/01/05 07:57:28;;;;;;;7.90;2.93;;;;;;;;;;5006523;28;20469;-79
2023/01/05 07:59:54;;;;;;;10.40;2.80;;;;;;;;;;5004476;28;20461;-78
2023/01/05 08:02:20;;;;;;;14.73;3.30;;;;;;;;;;5009123;28;20459;-78
2023/01/05 08:04:47;;;;;;;10.73;3.47;;;;;;;;;;5006839;28;20477;-78
2023/01/05 08:07:15;;;;;;;19.20;3.53;;;;;;;;;;5006694;28;20469;-79
2023/01/05 08:13:58;;;;;;;14.03;5.67;;;;;;;;;;4946823;28;20444;-79
2023/01/05 08:15:23;;;;;;;11.40;3.70;;;;;;;;;;4992452;28;20486;-78
2023/01/05 08:17:50;;;;;;;9.07;3.20;;;;;;;;;;5002487;28;20478;-78
2023/01/05 08:20:17;;;;;;;13.97;2.90;;;;;;;;;;5007975;28;20453;-78
2023/01/05 08:22:51;;;;;;;15.40;3.00;;;;;;;;;;5010489;28;20520;-78
2023/01/05 08:25:17;;;;;;;6.77;2.90;;;;;;;;;;5007584;28;20522;-78
2023/01/05 08:27:43;;;;;;;12.50;3.80;;;;;;;;;;5005855;28;20850;-78
2023/01/05 08:30:11;;;;;;;9.63;2.93;;;;;;;;;;5012249;28;20446;-78
2023/01/05 08:32:37;;;;;;;10.20;2.80;;;;;;;;;;5010066;28;20821;-78
2023/01/05 08:35:04;;;;;;;9.17;2.70;;;;;;;;;;5003913;28;20453;-78
2023/01/05 08:37:30;;;;;;;12.47;3.40;;;;;;;;;;5008053;28;20473;-79
2023/01/05 08:39:58;;;;;;;6.00;1.97;;;;;;;;;;5005390;28;20994;-78
2023/01/05 08:42:24;;;;;;;6.33;2.60;;;;;;;;;;5007399;28;20948;-79
2023/01/05 08:44:54;;;;;;;14.23;3.10;;;;;;;;;;5005823;28;20982;-78
2023/01/05 08:47:21;;;;;;;7.03;2.20;;;;;;;;;;5006443;28;20464;-78
2023/01/05 08:49:48;;;;;;;9.93;2.63;;;;;;;;;;5009320;28;20487;-78
2023/01/05 08:52:15;;;;;;;6.30;2.73;;;;;;;;;;5004239;28;20871;-78
2023/01/05 08:54:42;;;;;;;6.33;3.20;;;;;;;;;;5008160;28;20474;-78
2023/01/05 08:57:10;;;;;;;6.47;2.10;;;;;;;;;;5008808;28;20452;-78
2023/01/05 08:59:37;;;;;;;7.03;2.20;;;;;;;;;;5005555;28;20480;-78
2023/01/05 09:02:03;;;;;;;14.60;3.50;;;;;;;;;;5006067;28;20454;-79
2023/01/05 09:04:29;;;;;;;5.10;1.53;;;;;;;;;;5000292;28;20489;-78
2023/01/05 09:06:56;;;;;;;4.13;1.77;;;;;;;;;;5009308;28;20462;-79
2023/01/05 09:09:23;;;;;;;9.77;1.67;;;;;;;;;;5020560;28;20489;-80
2023/01/05 09:11:51;;;;;;;8.03;2.20;;;;;;;;;;5017824;28;20553;-81
2023/01/05 09:14:18;;;;;;;6.73;2.40;;;;;;;;;;5013831;28;20478;-79
2023/01/05 09:16:45;;;;;;;8.17;2.13;;;;;;;;;;5020905;28;20462;-80
2023/01/05 09:19:11;;;;;;;5.43;1.60;;;;;;;;;;5016596;28;20491;-80
2023/01/05 09:21:38;;;;;;;13.67;2.50;;;;;;;;;;5017356;28;20841;-80
2023/01/05 09:24:06;;;;;;;4.67;1.47;;;;;;;;;;5013092;28;20540;-81
2023/01/05 09:26:34;;;;;;;8.47;2.37;;;;;;;;;;5021681;28;20466;-80
2023/01/05 09:29:00;;;;;;;6.00;1.60;;;;;;;;;;5024469;28;20475;-80
2023/01/05 09:31:28;;;;;;;7.23;1.90;;;;;;;;;;5015152;28;20546;-80
2023/01/05 09:33:56;;;;;;;6.50;1.70;;;;;;;;;;5023545;28;20477;-81
2023/01/05 09:36:23;;;;;;;8.70;2.10;;;;;;;;;;5018619;28;20461;-81
2023/01/05 09:38:49;;;;;;;4.80;1.70;;;;;;;;;;5018910;28;20485;-80
2023/01/05 09:41:18;;;;;;;7.20;2.10;;;;;;;;;;5015772;28;20458;-81
2023/01/05 09:43:47;;;;;;;12.80;2.97;;;;;;;;;;5016286;28;20826;-80
2023/01/05 09:46:15;;;;;;;8.30;2.30;;;;;;;;;;5020279;28;21218;-80
2023/01/05 09:48:45;;;;;;;9.27;2.20;;;;;;;;;;5006836;28;20995;-81
2023/01/05 09:51:12;;;;;;;11.47;2.50;;;;;;;;;;5022357;28;20489;-80
2023/01/05 09:53:39;;;;;;;14.27;2.73;;;;;;;;;;5023177;28;20482;-81
2023/01/05 09:56:12;;;;;;;12.87;2.27;;;;;;;;;;5024744;28;20458;-80
2023/01/05 09:58:41;;;;;;;9.20;1.97;;;;;;;;;;5015962;28;20568;-80
2023/01/05 10:01:13;;;;;;;12.07;2.00;;;;;;;;;;5021242;28;20462;-81
2023/01/05 10:03:42;;;;;;;8.50;2.30;;;;;;;;;;5023028;28;20868;-80
2023/01/05 10:06:13;;;;;;;8.83;2.10;;;;;;;;;;5027170;28;20463;-81
2023/01/05 10:08:41;;;;;;;11.23;2.00;;;;;;;;;;5017805;28;20489;-80
2023/01/05 10:14:08;;;;;;;15.93;2.63;;;;;;;;;;5015395;28;20461;-80
2023/01/05 10:16:35;;;;;;;5.90;1.80;;;;;;;;;;5021118;28;20457;-80
2023/01/05 10:19:01;;;;;;;8.60;2.00;;;;;;;;;;5015554;28;20842;-80
2023/01/05 10:21:34;;;;;;;6.37;1.90;;;;;;;;;;5021688;28;20481;-80
2023/01/05 10:24:10;;;;;;;12.33;3.17;;;;;;;;;;5022918;28;20475;-81
2023/01/05 10:26:43;;;;;;;10.33;3.07;;;;;;;;;;5018055;28;20457;-81
2023/01/05 10:29:10;;;;;;;12.10;2.37;;;;;;;;;;5021962;28;20488;-80
2023/01/05 10:31:44;;;;;;;10.93;2.97;;;;;;;;;;5021374;28;21018;-81
2023/01/05 10:34:19;;;;;;;9.70;2.10;;;;;;;;;;5019085;28;20481;-80
2023/01/05 10:36:52;;;;;;;9.27;1.83;;;;;;;;;;5018996;28;20456;-80
2023/01/05 10:39:25;;;;;;;5.57;1.80;;;;;;;;;;5020256;28;20488;-80
2023/01/05 10:41:55;;;;;;;10.83;2.90;;;;;;;;;;5020589;28;20462;-80
2023/01/05 10:44:33;;;;;;;12.43;3.20;;;;;;;;;;5022595;28;20473;-80
2023/01/05 10:46:59;;;;;;;6.63;2.13;;;;;;;;;;5019574;28;20464;-80
2023/01/05 10:49:29;;;;;;;8.50;2.20;;;;;;;;;;5016215;28;20484;-80
2023/01/05 10:51:58;;;;;;;7.40;2.07;;;;;;;;;;5024751;28;20446;-80
2023/01/05 10:54:29;;;;;;;12.73;2.40;;;;;;;;;;5019870;28;20478;-81
2023/01/05 10:56:55;;;;;;;9.90;2.00;;;;;;;;;;5017842;28;20829;-81
2023/01/05 10:59:21;;;;;;;7.80;1.90;;;;;;;;;;5015431;28;20869;-80
2023/01/05 11:01:49;;;;;;;15.87;2.50;;;;;;;;;;5021133;28;20461;-80
2023/01/05 11:04:16;;;;;;;14.57;2.67;;;;;;;;;;5016986;28;20476;-80
2023/01/05 11:06:43;;;;;;;3.83;1.70;;;;;;;;;;5018573;28;20907;-80
2023/01/05 11:09:17;;;;;;;6.47;2.20;;;;;;;;;;5019617;28;20477;-80
2023/01/05 11:11:52;;;;;;;11.17;2.03;;;;;;;;;;5020606;28;20446;-80
2023/01/05 11:14:20;;;;;;;5.03;1.87;;;;;;;;;;5017071;28;20469;-81
2023/01/05 11:16:47;;;;;;;8.10;2.00;;;;;;;;;;5024912;28;20469;-81
2023/01/05 11:19:15;;;;;;;4.13;1.83;;;;;;;;;;5018717;28;20501;-80
2023/01/05 11:21:44;;;;;;;7.30;2.00;;;;;;;;;;5020875;28;20457;-80
2023/01/05 11:24:25;;;;;;;9.87;2.50;;;;;;;;;;5015370;28;20908;-80
2023/01/05 11:26:53;;;;;;;6.37;2.70;;;;;;;;;;5019891;28;20458;-81
2023/01/05 11:29:20;;;;;;;6.40;2.27;;;;;;;;;;5019496;28;20481;-80
2023/01/05 11:31:48;;;;;;;12.07;3.43;;;;;;;;;;5017874;28;21034;-80
2023/01/05 11:34:27;;;;;;;7.50;2.47;;;;;;;;;;5017254;28;20480;-80
2023/01/05 11:36:55;;;;;;;5.67;1.40;;;;;;;;;;5015679;28;20466;-80
2023/01/05 11:39:25;;;;;;;9.97;1.87;;;;;;;;;;5018814;28;20473;-81
2023/01/05 11:42:03;;;;;;;10.70;2.87;;;;;;;;;;5019163;28;20457;-80
2023/01/05 11:44:30;;;;;;;9.67;1.80;;;;;;;;;;5020923;28;20470;-81
2023/01/05 11:46:56;;;;;;;4.73;2.03;;;;;;;;;;5017571;28;20476;-81
2023/01/05 11:49:23;;;;;;;9.53;3.37;;;;;;;;;;5013221;28;20482;-81
2023/01/05 11:51:49;;;;;;;12.40;3.90;;;;;;;;;;5017463;28;20840;-81
2023/01/05 11:54:31;;;;;;;9.63;2.50;;;;;;;;;;5016392;28;20493;-80
2023/01/05 11:57:11;;;;;;;3.20;2.10;;;;;;;;;;5022000;28;20450;-80
2023/01/05 11:59:38;;;;;;;6.63;1.70;;;;;;;;;;5020621;28;20470;-80
2023/01/05 12:02:11;;;;;;;12.47;2.50;;;;;;;;;;5019365;28;20964;-80
2023/01/05 12:04:48;;;;;;;9.43;1.93;;;;;;;;;;5015250;28;20478;-81
2023/01/05 12:07:25;;;;;;;9.93;2.23;;;;;;;;;;5020984;28;20445;-81
2023/01/05 12:09:54;;;;;;;3.07;1.50;;;;;;;;;;5014832;28;20470;-80
2023/01/05 12:12:27;;;;;;;4.10;1.60;;;;;;;;;;5019447;28;20454;-80
2023/01/05 12:15:01;;;;;;;6.33;1.60;;;;;;;;;;5015660;28;20462;-81
2023/01/05 12:17:32;;;;;;;5.53;1.90;;;;;;;;;;5018511;28;20485;-81
2023/01/05 12:20:07;;;;;;;8.10;2.00;;;;;;;;;;5015526;28;20473;-81
2023/01/05 12:22:47;;;;;;;7.83;2.33;;;;;;;;;;5012525;28;20510;-81
2023/01/05 12:25:17;;;;;;;10.00;2.37;;;;;;;;;;5015593;28;20481;-81
2023/01/05 12:28:01;;;;;;;9.80;2.13;;;;;;;;;;5014984;28;20481;-80
2023/01/05 12:30:32;;;;;;;4.83;2.03;;;;;;;;;;5018201;28;20475;-80
2023/01/05 12:33:20;;;;;;;7.37;1.70;;;;;;;;;;5013403;28;20474;-80
2023/01/05 12:35:53;;;;;;;6.40;2.17;;;;;;;;;;5017617;28;20477;-81
2023/01/05 12:38:24;;;;;;;5.87;1.70;;;;;;;;;;5012709;28;21003;-80
2023/01/05 12:40:57;;;;;;;6.17;1.93;;;;;;;;;;5021263;28;20466;-81
2023/01/05 12:43:31;;;;;;;13.20;2.93;;;;;;;;;;5019979;28;20552;-81
2023/01/05 12:46:12;;;;;;;5.50;2.40;;;;;;;;;;5015765;28;20477;-81
2023/01/05 12:48:42;;;;;;;14.47;3.20;;;;;;;;;;5016234;28;20474;-80
2023/01/05 12:51:12;;;;;;;9.77;2.27;;;;;;;;;;5014165;28;20515;-80
2023/01/05 12:53:42;;;;;;;5.17;2.23;;;;;;;;;;5017299;28;20481;-81
2023/01/05 12:56:14;;;;;;;4.93;1.70;;;;;;;;;;5011273;28;20461;-81
2023/01/05 12:58:43;;;;;;;8.20;1.97;;;;;;;;;;5019442;28;20488;-81
2023/01/05 13:01:16;;;;;;;5.70;1.80;;;;;;;;;;5018233;28;20454;-81
2023/01/05 13:03:46;;;;;;;4.83;1.60;;;;;;;;;;5017259;28;20501;-80
2023/01/05 13:06:14;;;;;;;7.13;1.50;;;;;;;;;;5017836;28;21164;-81
2023/01/05 13:08:43;;;;;;;9.43;2.40;;;;;;;;;;5014296;28;20470;-81
2023/01/05 13:11:13;;;;;;;5.50;2.13;;;;;;;;;;5017103;28;20833;-81
2023/01/05 13:13:45;;;;;;;12.23;2.07;;;;;;;;;;5013699;28;20488;-81
2023/01/05 13:16:13;;;;;;;11.10;2.73;;;;;;;;;;5012847;28;20505;-81
2023/01/05 13:18:43;;;;;;;14.13;1.60;;;;;;;;;;5018599;28;20951;-81
2023/01/05 13:21:11;;;;;;;11.47;1.93;;;;;;;;;;5020988;28;20855;-81
2023/01/05 13:23:40;;;;;;;4.27;1.53;;;;;;;;;;5020756;28;20486;-80
2023/01/05 13:26:07;;;;;;;6.17;2.13;;;;;;;;;;5017824;28;20490;-81
2023/01/05 13:28:34;;;;;;;6.57;3.60;;;;;;;;;;5020265;28;20482;-81
2023/01/05 13:31:08;;;;;;;6.20;1.87;;;;;;;;;;5023883;28;20464;-81
2023/01/05 13:33:52;;;;;;;7.37;1.73;;;;;;;;;;5020000;28;20547;-81
2023/01/05 13:36:25;;;;;;;6.40;1.43;;;;;;;;;;5011527;28;20517;-81
2023/01/05 13:38:57;;;;;;;7.03;2.80;;;;;;;;;;5016349;28;20479;-81
2023/01/05 13:41:34;;;;;;;6.77;1.60;;;;;;;;;;5017370;28;20466;-81
2023/01/05 13:44:13;;;;;;;4.70;1.37;;;;;;;;;;5020264;28;20858;-81
2023/01/05 13:46:48;;;;;;;5.67;1.20;;;;;;;;;;5015154;28;20984;-81
2023/01/05 13:49:23;;;;;;;4.07;1.40;;;;;;;;;;5018827;28;20487;-81
2023/01/05 13:51:53;;;;;;;14.60;2.17;;;;;;;;;;5017496;28;20445;-81
2023/01/05 13:54:22;;;;;;;8.70;1.53;;;;;;;;;;5010691;28;20486;-80
2023/01/05 13:56:49;;;;;;;5.50;1.70;;;;;;;;;;5017758;28;20451;-81
2023/01/05 13:59:22;;;;;;;6.63;1.63;;;;;;;;;;5021446;28;20485;-81
2023/01/05 14:01:49;;;;;;;6.20;2.00;;;;;;;;;;5021810;28;20443;-80
2023/01/05 14:04:17;;;;;;;7.07;1.73;;;;;;;;;;5017094;28;20473;-81
2023/01/05 14:06:45;;;;;;;12.57;2.37;;;;;;;;;;5023621;28;20543;-81
2023/01/05 14:09:15;;;;;;;5.00;2.23;;;;;;;;;;5014518;28;20481;-81
2023/01/05 14:12:11;;;;;;;9.03;1.93;;;;;;;;;;5021717;28;20447;-81
2023/01/05 14:14:52;;;;;;;7.27;1.90;;;;;;;;;;5012910;28;20469;-81
2023/01/05 14:17:33;;;;;;;5.37;1.73;;;;;;;;;;5021384;28;21054;-81
2023/01/05 14:19:59;;;;;;;9.30;2.73;;;;;;;;;;5019877;28;20469;-81
2023/01/05 14:22:36;;;;;;;5.23;1.90;;;;;;;;;;5016904;28;20454;-81
2023/01/05 14:25:18;;;;;;;6.80;1.97;;;;;;;;;;5019087;28;20470;-81
2023/01/05 14:28:14;;;;;;;8.13;2.43;;;;;;;;;;5015163;28;20486;-81
2023/01/05 14:30:42;;;;;;;3.13;1.50;;;;;;;;;;5019023;28;20468;-81
2023/01/05 14:33:09;;;;;;;7.70;2.13;;;;;;;;;;5018215;28;20566;-81
2023/01/05 14:35:36;;;;;;;2.30;1.30;;;;;;;;;;5017723;28;20458;-81
2023/01/05 14:38:04;;;;;;;2.97;1.47;;;;;;;;;;5020503;28;20476;-81
2023/01/05 14:40:32;;;;;;;4.00;1.40;;;;;;;;;;5023463;28;20943;-81
2023/01/05 14:42:59;;;;;;;6.70;1.80;;;;;;;;;;5017452;28;20462;-81
2023/01/05 14:45:28;;;;;;;5.27;1.50;;;;;;;;;;5020716;28;20485;-81
2023/01/05 14:47:56;;;;;;;6.00;2.00;;;;;;;;;;5017926;28;20493;-81
2023/01/05 14:50:28;;;;;;;8.43;1.60;;;;;;;;;;5014387;28;20940;-81
2023/01/05 14:52:55;;;;;;;3.77;1.30;;;;;;;;;;5012996;28;20951;-81
2023/01/05 14:55:24;;;;;;;4.77;1.47;;;;;;;;;;5021233;28;20461;-81
2023/01/05 14:57:51;;;;;;;4.30;1.40;;;;;;;;;;5017364;28;20827;-81
2023/01/05 15:00:22;;;;;;;4.20;1.47;;;;;;;;;;5021305;28;20450;-81
2023/01/05 15:02:54;;;;;;;4.57;1.93;;;;;;;;;;5015488;28;20457;-81
2023/01/05 15:05:22;;;;;;;9.97;1.70;;;;;;;;;;5012473;28;20474;-81
2023/01/05 15:07:53;;;;;;;7.30;1.53;;;;;;;;;;5016891;28;20821;-81
2023/01/05 15:10:33;;;;;;;3.90;1.60;;;;;;;;;;5022114;28;20824;-81
2023/01/05 15:13:14;;;;;;;9.17;2.10;;;;;;;;;;5017579;28;20986;-81
2023/01/05 15:15:43;;;;;;;8.50;2.27;;;;;;;;;;5007918;28;20985;-81
2023/01/05 15:18:19;;;;;;;4.83;1.80;;;;;;;;;;5012616;28;20477;-81
2023/01/05 15:20:59;;;;;;;3.53;1.27;;;;;;;;;;5014707;28;20468;-81
2023/01/05 15:23:34;;;;;;;7.00;1.50;;;;;;;;;;5014974;28;20469;-82
2023/01/05 15:26:08;;;;;;;1.90;1.67;;;;;;;;;;5016831;28;20482;-81